sensor_id;sensor_type;location;lat;lon;timestamp;temperature;humidity
15239;DHT22;7722;53.274;9.500;2023-02-01T00:02:29;5.10;99.90
15239;DHT22;7722;53.274;9.500;2023-02-01T00:04:56;5.20;99.90
15239;DHT22;7722;53.274;9.500;2023-02-01T00:07:24;5.10;99.90
15239;DHT22;7722;53.274;9.500;2023-02-01T00:09:50;5.20;99.90
15239;DHT22;7722;53.274;9.500;2023-02-01T00:12:18;5.10;99.90
15239;DHT22;7722;53.274;9.500;2023-02-01T00:14:46;5.20;99.90
15239;DHT22;7722;53.274;9.500;2023-02-01T00:17:14;5.10;99.90
15239;DHT22;7722;53.274;9.500;2023-02-01T00:19:42;5.10;99.90
15239;DHT22;7722;53.274;9.500;2023-02-01T00:22:09;5.10;99.90
15239;DHT22;7722;53.274;9.500;2023-02-01T00:24:36;5.10;99.90
15239;DHT22;7722;53.274;9.500;2023-02-01T00:27:03;5.20;99.90
15239;DHT22;7722;53.274;9.500;2023-02-01T00:29:31;5.10;99.90
15239;DHT22;7722;53.274;9.500;2023-02-01T00:31:58;5.10;99.90
15239;DHT22;7722;53.274;9.500;2023-02-01T00:34:25;5.10;99.90
15239;DHT22;7722;53.274;9.500;2023-02-01T00:36:54;5.10;99.90
15239;DHT22;7722;53.274;9.500;2023-02-01T00:39:22;5.10;99.90
15239;DHT22;7722;53.274;9.500;2023-02-01T00:41:49;5.10;99.90
15239;DHT22;7722;53.274;9.500;2023-02-01T00:44:16;5.10;99.90
15239;DHT22;7722;53.274;9.500;2023-02-01T00:46:43;5.10;99.90
15239;DHT22;7722;53.274;9.500;2023-02-01T00:49:10;5.20;99.90
15239;DHT22;7722;53.274;9.500;2023-02-01T00:51:37;5.10;99.90
15239;DHT22;7722;53.274;9.500;2023-02-01T00:54:06;5.10;99.90
15239;DHT22;7722;53.274;9.500;2023-02-01T00:56:33;5.10;99.90
15239;DHT22;7722;53.274;9.500;2023-02-01T00:59:00;5.00;99.90
15239;DHT22;7722;53.274;9.500;2023-02-01T01:01:27;5.10;99.90
15239;DHT22;7722;53.274;9.500;2023-02-01T01:03:56;5.10;99.90
15239;DHT22;7722;53.274;9.500;2023-02-01T01:06:25;5.10;99.90
15239;DHT22;7722;53.274;9.500;2023-02-01T01:08:52;5.00;99.90
15239;DHT22;7722;53.274;9.500;2023-02-01T01:11:23;5.10;99.90
15239;DHT22;7722;53.274;9.500;2023-02-01T01:13:51;5.00;99.90
15239;DHT22;7722;53.274;9.500;2023-02-01T01:16:20;5.10;99.90
15239;DHT22;7722;53.274;9.500;2023-02-01T01:18:47;5.10;99.90
15239;DHT22;7722;53.274;9.500;2023-02-01T01:21:16;5.20;99.90
15239;DHT22;7722;53.274;9.500;2023-02-01T01:23:44;5.20;99.90
15239;DHT22;7722;53.274;9.500;2023-02-01T01:26:14;5.10;99.90
15239;DHT22;7722;53.274;9.500;2023-02-01T01:28:43;5.10;99.90
15239;DHT22;7722;53.274;9.500;2023-02-01T01:31:13;5.10;99.90
15239;DHT22;7722;53.274;9.500;2023-02-01T01:33:40;5.20;99.90
15239;DHT22;7722;53.274;9.500;2023-02-01T01:36:10;5.20;99.90
15239;DHT22;7722;53.274;9.500;2023-02-01T01:38:38;5.10;99.90
15239;DHT22;7722;53.274;9.500;2023-02-01T01:41:05;5.20;99.90
15239;DHT22;7722;53.274;9.500;2023-02-01T01:43:54;5.20;99.90
15239;DHT22;7722;53.274;9.500;2023-02-01T01:46:23;5.20;99.90
15239;DHT22;7722;53.274;9.500;2023-02-01T01:48:56;5.30;99.90
15239;DHT22;7722;53.274;9.500;2023-02-01T01:51:24;5.30;99.90
15239;DHT22;7722;53.274;9.500;2023-02-01T01:53:59;5.30;99.90
15239;DHT22;7722;53.274;9.500;2023-02-01T01:56:29;5.30;99.90
15239;DHT22;7722;53.274;9.500;2023-02-01T01:58:58;5.30;99.90
15239;DHT22;7722;53.274;9.500;2023-02-01T02:01:26;5.30;99.90
15239;DHT22;7722;53.274;9.500;2023-02-01T02:03:55;5.30;99.90
15239;DHT22;7722;53.274;9.500;2023-02-01T02:06:30;5.30;99.90
15239;DHT22;7722;53.274;9.500;2023-02-01T02:09:00;5.30;99.90
15239;DHT22;7722;53.274;9.500;2023-02-01T02:11:27;5.20;99.90
15239;DHT22;7722;53.274;9.500;2023-02-01T02:13:55;5.40;99.90
15239;DHT22;7722;53.274;9.500;2023-02-01T02:16:52;5.40;99.90
15239;DHT22;7722;53.274;9.500;2023-02-01T02:23:03;5.40;99.90
15239;DHT22;7722;53.274;9.500;2023-02-01T02:26:00;5.40;99.90
15239;DHT22;7722;53.274;9.500;2023-02-01T02:28:52;5.50;99.90
15239;DHT22;7722;53.274;9.500;2023-02-01T02:31:40;5.40;99.90
15239;DHT22;7722;53.274;9.500;2023-02-01T02:34:17;5.40;99.90
15239;DHT22;7722;53.274;9.500;2023-02-01T02:36:59;5.40;99.90
15239;DHT22;7722;53.274;9.500;2023-02-01T02:39:37;5.40;99.90
15239;DHT22;7722;53.274;9.500;2023-02-01T02:42:11;5.40;99.90
15239;DHT22;7722;53.274;9.500;2023-02-01T02:45:03;5.30;99.90
15239;DHT22;7722;53.274;9.500;2023-02-01T02:47:53;5.30;99.90
15239;DHT22;7722;53.274;9.500;2023-02-01T02:50:29;5.20;99.90
15239;DHT22;7722;53.274;9.500;2023-02-01T02:53:23;5.20;99.90
15239;DHT22;7722;53.274;9.500;2023-02-01T02:56:10;5.10;99.90
15239;DHT22;7722;53.274;9.500;2023-02-01T02:58:56;5.10;99.90
15239;DHT22;7722;53.274;9.500;2023-02-01T03:01:42;5.10;99.90
15239;DHT22;7722;53.274;9.500;2023-02-01T03:04:27;5.10;99.90
15239;DHT22;7722;53.274;9.500;2023-02-01T03:06:56;5.10;99.90
15239;DHT22;7722;53.274;9.500;2023-02-01T03:09:27;5.10;99.90
15239;DHT22;7722;53.274;9.500;2023-02-01T03:12:02;5.00;99.90
15239;DHT22;7722;53.274;9.500;2023-02-01T03:14:54;4.90;99.90
15239;DHT22;7722;53.274;9.500;2023-02-01T03:17:28;4.80;99.90
15239;DHT22;7722;53.274;9.500;2023-02-01T03:20:01;4.70;99.90
15239;DHT22;7722;53.274;9.500;2023-02-01T03:22:31;4.70;99.90
15239;DHT22;7722;53.274;9.500;2023-02-01T03:25:04;4.60;99.90
15239;DHT22;7722;53.274;9.500;2023-02-01T03:27:35;4.50;99.90
15239;DHT22;7722;53.274;9.500;2023-02-01T03:30:08;4.60;99.90
15239;DHT22;7722;53.274;9.500;2023-02-01T03:32:38;4.50;99.90
15239;DHT22;7722;53.274;9.500;2023-02-01T03:35:25;4.50;99.90
15239;DHT22;7722;53.274;9.500;2023-02-01T03:38:01;4.40;99.90
15239;DHT22;7722;53.274;9.500;2023-02-01T03:40:33;4.50;99.90
15239;DHT22;7722;53.274;9.500;2023-02-01T03:43:05;4.30;99.90
15239;DHT22;7722;53.274;9.500;2023-02-01T03:45:36;4.20;99.90
15239;DHT22;7722;53.274;9.500;2023-02-01T03:48:06;4.20;99.90
15239;DHT22;7722;53.274;9.500;2023-02-01T03:50:36;4.10;99.90
15239;DHT22;7722;53.274;9.500;2023-02-01T03:53:07;4.10;99.90
15239;DHT22;7722;53.274;9.500;2023-02-01T03:55:36;4.10;99.90
15239;DHT22;7722;53.274;9.500;2023-02-01T03:58:07;4.10;99.90
15239;DHT22;7722;53.274;9.500;2023-02-01T04:00:34;4.20;99.90
15239;DHT22;7722;53.274;9.500;2023-02-01T04:03:03;4.00;99.90
15239;DHT22;7722;53.274;9.500;2023-02-01T04:05:30;3.90;99.90
15239;DHT22;7722;53.274;9.500;2023-02-01T04:07:57;3.90;99.90
15239;DHT22;7722;53.274;9.500;2023-02-01T04:10:26;3.70;99.90
15239;DHT22;7722;53.274;9.500;2023-02-01T04:12:53;3.60;99.90
15239;DHT22;7722;53.274;9.500;2023-02-01T04:15:20;3.60;99.90
15239;DHT22;7722;53.274;9.500;2023-02-01T04:17:47;3.60;99.90
15239;DHT22;7722;53.274;9.500;2023-02-01T04:20:15;3.50;99.90
15239;DHT22;7722;53.274;9.500;2023-02-01T04:22:42;3.50;99.90
15239;DHT22;7722;53.274;9.500;2023-02-01T04:25:10;3.40;99.90
15239;DHT22;7722;53.274;9.500;2023-02-01T04:27:38;3.50;99.90
15239;DHT22;7722;53.274;9.500;2023-02-01T04:30:06;3.40;99.90
15239;DHT22;7722;53.274;9.500;2023-02-01T04:32:35;3.50;99.90
15239;DHT22;7722;53.274;9.500;2023-02-01T04:35:02;3.40;99.90
15239;DHT22;7722;53.274;9.500;2023-02-01T04:37:29;3.40;99.90
15239;DHT22;7722;53.274;9.500;2023-02-01T04:39:57;3.50;99.90
15239;DHT22;7722;53.274;9.500;2023-02-01T04:42:24;3.60;99.90
15239;DHT22;7722;53.274;9.500;2023-02-01T04:44:52;3.60;99.90
15239;DHT22;7722;53.274;9.500;2023-02-01T04:47:19;3.60;99.90
15239;DHT22;7722;53.274;9.500;2023-02-01T04:49:47;3.60;99.90
15239;DHT22;7722;53.274;9.500;2023-02-01T04:52:14;3.70;99.90
15239;DHT22;7722;53.274;9.500;2023-02-01T04:54:40;3.70;99.90
15239;DHT22;7722;53.274;9.500;2023-02-01T04:57:07;3.80;99.90
15239;DHT22;7722;53.274;9.500;2023-02-01T04:59:35;3.80;99.90
15239;DHT22;7722;53.274;9.500;2023-02-01T05:02:03;3.80;99.90
15239;DHT22;7722;53.274;9.500;2023-02-01T05:04:30;3.90;99.90
15239;DHT22;7722;53.274;9.500;2023-02-01T05:06:57;3.90;99.90
15239;DHT22;7722;53.274;9.500;2023-02-01T05:09:24;3.90;99.90
15239;DHT22;7722;53.274;9.500;2023-02-01T05:11:51;3.90;99.90
15239;DHT22;7722;53.274;9.500;2023-02-01T05:14:36;3.80;99.90
15239;DHT22;7722;53.274;9.500;2023-02-01T05:17:04;3.70;99.90
15239;DHT22;7722;53.274;9.500;2023-02-01T05:19:31;3.70;99.90
15239;DHT22;7722;53.274;9.500;2023-02-01T05:21:58;3.60;99.90
15239;DHT22;7722;53.274;9.500;2023-02-01T05:24:25;3.70;99.90
15239;DHT22;7722;53.274;9.500;2023-02-01T05:26:53;3.70;99.90
15239;DHT22;7722;53.274;9.500;2023-02-01T05:29:20;3.70;99.90
15239;DHT22;7722;53.274;9.500;2023-02-01T05:31:47;3.60;99.90
15239;DHT22;7722;53.274;9.500;2023-02-01T05:34:16;3.70;99.90
15239;DHT22;7722;53.274;9.500;2023-02-01T05:36:43;3.80;99.90
15239;DHT22;7722;53.274;9.500;2023-02-01T05:39:10;3.80;99.90
15239;DHT22;7722;53.274;9.500;2023-02-01T05:41:37;3.80;99.90
15239;DHT22;7722;53.274;9.500;2023-02-01T05:44:04;3.80;99.90
15239;DHT22;7722;53.274;9.500;2023-02-01T05:46:33;3.70;99.90
15239;DHT22;7722;53.274;9.500;2023-02-01T05:49:00;3.70;99.90
15239;DHT22;7722;53.274;9.500;2023-02-01T05:51:29;3.70;99.90
15239;DHT22;7722;53.274;9.500;2023-02-01T05:53:56;3.80;99.90
15239;DHT22;7722;53.274;9.500;2023-02-01T05:56:23;3.80;99.90
15239;DHT22;7722;53.274;9.500;2023-02-01T05:58:50;4.00;99.90
15239;DHT22;7722;53.274;9.500;2023-02-01T06:01:17;3.90;99.90
15239;DHT22;7722;53.274;9.500;2023-02-01T06:03:44;3.90;99.90
15239;DHT22;7722;53.274;9.500;2023-02-01T06:06:11;3.90;99.90
15239;DHT22;7722;53.274;9.500;2023-02-01T06:08:39;3.80;99.90
15239;DHT22;7722;53.274;9.500;2023-02-01T06:11:07;3.70;99.90
15239;DHT22;7722;53.274;9.500;2023-02-01T06:13:42;3.50;99.90
15239;DHT22;7722;53.274;9.500;2023-02-01T06:16:09;3.30;99.90
15239;DHT22;7722;53.274;9.500;2023-02-01T06:18:36;3.10;99.90
15239;DHT22;7722;53.274;9.500;2023-02-01T06:21:03;3.10;99.90
15239;DHT22;7722;53.274;9.500;2023-02-01T06:23:31;3.00;99.90
15239;DHT22;7722;53.274;9.500;2023-02-01T06:26:01;3.20;99.90
15239;DHT22;7722;53.274;9.500;2023-02-01T06:28:29;3.10;99.90
15239;DHT22;7722;53.274;9.500;2023-02-01T06:30:57;3.10;99.90
15239;DHT22;7722;53.274;9.500;2023-02-01T06:33:24;3.20;99.90
15239;DHT22;7722;53.274;9.500;2023-02-01T06:35:57;3.30;99.90
15239;DHT22;7722;53.274;9.500;2023-02-01T06:38:24;3.50;99.90
15239;DHT22;7722;53.274;9.500;2023-02-01T06:40:53;3.40;99.90
15239;DHT22;7722;53.274;9.500;2023-02-01T06:43:21;3.40;99.90
15239;DHT22;7722;53.274;9.500;2023-02-01T06:45:49;3.60;99.90
15239;DHT22;7722;53.274;9.500;2023-02-01T06:48:16;3.70;99.90
15239;DHT22;7722;53.274;9.500;2023-02-01T06:50:43;3.80;99.90
15239;DHT22;7722;53.274;9.500;2023-02-01T06:53:10;3.80;99.90
15239;DHT22;7722;53.274;9.500;2023-02-01T06:55:37;3.90;99.90
15239;DHT22;7722;53.274;9.500;2023-02-01T06:58:04;4.10;99.90
15239;DHT22;7722;53.274;9.500;2023-02-01T07:00:33;4.20;99.90
15239;DHT22;7722;53.274;9.500;2023-02-01T07:03:00;4.30;99.90
15239;DHT22;7722;53.274;9.500;2023-02-01T07:05:30;4.20;99.90
15239;DHT22;7722;53.274;9.500;2023-02-01T07:07:57;4.20;99.90
15239;DHT22;7722;53.274;9.500;2023-02-01T07:10:25;4.30;99.90
15239;DHT22;7722;53.274;9.500;2023-02-01T07:12:52;4.20;99.90
15239;DHT22;7722;53.274;9.500;2023-02-01T07:15:23;4.30;99.90
15239;DHT22;7722;53.274;9.500;2023-02-01T07:17:54;4.30;99.90
15239;DHT22;7722;53.274;9.500;2023-02-01T07:20:21;4.40;99.90
15239;DHT22;7722;53.274;9.500;2023-02-01T07:22:49;4.50;99.90
15239;DHT22;7722;53.274;9.500;2023-02-01T07:25:21;4.50;99.90
15239;DHT22;7722;53.274;9.500;2023-02-01T07:27:57;4.60;99.90
15239;DHT22;7722;53.274;9.500;2023-02-01T07:30:26;4.50;99.90
15239;DHT22;7722;53.274;9.500;2023-02-01T07:32:54;4.70;99.90
15239;DHT22;7722;53.274;9.500;2023-02-01T07:35:24;4.60;99.90
15239;DHT22;7722;53.274;9.500;2023-02-01T07:37:52;4.60;99.90
15239;DHT22;7722;53.274;9.500;2023-02-01T07:40:19;4.60;99.90
15239;DHT22;7722;53.274;9.500;2023-02-01T07:42:50;4.70;99.90
15239;DHT22;7722;53.274;9.500;2023-02-01T07:45:17;4.60;99.90
15239;DHT22;7722;53.274;9.500;2023-02-01T07:47:45;4.60;99.90
15239;DHT22;7722;53.274;9.500;2023-02-01T07:50:14;4.50;99.90
15239;DHT22;7722;53.274;9.500;2023-02-01T07:52:41;4.50;99.90
15239;DHT22;7722;53.274;9.500;2023-02-01T07:55:09;4.50;99.90
15239;DHT22;7722;53.274;9.500;2023-02-01T07:57:36;4.40;99.90
15239;DHT22;7722;53.274;9.500;2023-02-01T08:00:04;4.40;99.90
15239;DHT22;7722;53.274;9.500;2023-02-01T08:02:48;4.40;99.90
15239;DHT22;7722;53.274;9.500;2023-02-01T08:05:17;4.40;99.90
15239;DHT22;7722;53.274;9.500;2023-02-01T08:07:44;4.40;99.90
15239;DHT22;7722;53.274;9.500;2023-02-01T08:10:15;4.50;99.90
15239;DHT22;7722;53.274;9.500;2023-02-01T08:12:42;4.50;99.90
15239;DHT22;7722;53.274;9.500;2023-02-01T08:15:13;4.60;99.90
15239;DHT22;7722;53.274;9.500;2023-02-01T08:17:46;4.60;99.90
15239;DHT22;7722;53.274;9.500;2023-02-01T08:20:13;4.60;99.90
15239;DHT22;7722;53.274;9.500;2023-02-01T08:22:42;4.60;99.90
15239;DHT22;7722;53.274;9.500;2023-02-01T08:25:09;4.60;99.90
15239;DHT22;7722;53.274;9.500;2023-02-01T08:27:37;4.70;99.90
15239;DHT22;7722;53.274;9.500;2023-02-01T08:30:05;4.60;99.90
15239;DHT22;7722;53.274;9.500;2023-02-01T08:32:33;4.70;99.90
15239;DHT22;7722;53.274;9.500;2023-02-01T08:35:01;4.70;99.90
15239;DHT22;7722;53.274;9.500;2023-02-01T08:37:28;4.80;99.90
15239;DHT22;7722;53.274;9.500;2023-02-01T08:39:56;4.80;99.90
15239;DHT22;7722;53.274;9.500;2023-02-01T08:42:23;4.90;99.90
15239;DHT22;7722;53.274;9.500;2023-02-01T08:45:08;4.90;99.90
15239;DHT22;7722;53.274;9.500;2023-02-01T08:47:36;5.00;99.90
15239;DHT22;7722;53.274;9.500;2023-02-01T08:50:03;5.00;99.90
15239;DHT22;7722;53.274;9.500;2023-02-01T08:52:30;4.90;99.90
15239;DHT22;7722;53.274;9.500;2023-02-01T08:54:59;4.80;99.90
15239;DHT22;7722;53.274;9.500;2023-02-01T08:57:26;4.80;99.90
15239;DHT22;7722;53.274;9.500;2023-02-01T08:59:53;4.80;99.90
15239;DHT22;7722;53.274;9.500;2023-02-01T09:02:20;4.80;99.90
15239;DHT22;7722;53.274;9.500;2023-02-01T09:04:47;4.90;99.90
15239;DHT22;7722;53.274;9.500;2023-02-01T09:07:14;4.90;99.90
15239;DHT22;7722;53.274;9.500;2023-02-01T09:09:43;4.90;99.90
15239;DHT22;7722;53.274;9.500;2023-02-01T09:12:12;4.90;99.90
15239;DHT22;7722;53.274;9.500;2023-02-01T09:14:39;5.00;99.90
15239;DHT22;7722;53.274;9.500;2023-02-01T09:17:06;5.00;99.90
15239;DHT22;7722;53.274;9.500;2023-02-01T09:19:33;5.00;99.90
15239;DHT22;7722;53.274;9.500;2023-02-01T09:22:00;5.10;99.90
15239;DHT22;7722;53.274;9.500;2023-02-01T09:24:27;5.10;99.90
15239;DHT22;7722;53.274;9.500;2023-02-01T09:26:54;5.20;99.90
15239;DHT22;7722;53.274;9.500;2023-02-01T09:29:23;5.30;99.90
15239;DHT22;7722;53.274;9.500;2023-02-01T09:31:50;5.30;99.90
15239;DHT22;7722;53.274;9.500;2023-02-01T09:34:17;5.40;99.90
15239;DHT22;7722;53.274;9.500;2023-02-01T09:36:44;5.50;99.90
15239;DHT22;7722;53.274;9.500;2023-02-01T09:39:11;5.50;99.90
15239;DHT22;7722;53.274;9.500;2023-02-01T09:41:46;5.50;99.90
15239;DHT22;7722;53.274;9.500;2023-02-01T09:44:28;5.50;99.90
15239;DHT22;7722;53.274;9.500;2023-02-01T09:46:58;5.50;99.90
15239;DHT22;7722;53.274;9.500;2023-02-01T09:49:28;5.60;99.90
15239;DHT22;7722;53.274;9.500;2023-02-01T09:51:56;5.70;99.90
15239;DHT22;7722;53.274;9.500;2023-02-01T09:54:26;5.70;99.90
15239;DHT22;7722;53.274;9.500;2023-02-01T09:56:56;5.70;99.90
15239;DHT22;7722;53.274;9.500;2023-02-01T09:59:33;5.70;99.90
15239;DHT22;7722;53.274;9.500;2023-02-01T10:02:10;5.80;99.90
15239;DHT22;7722;53.274;9.500;2023-02-01T10:04:37;5.80;99.90
15239;DHT22;7722;53.274;9.500;2023-02-01T10:07:17;6.00;99.90
15239;DHT22;7722;53.274;9.500;2023-02-01T10:09:56;6.20;99.90
15239;DHT22;7722;53.274;9.500;2023-02-01T10:12:53;6.30;99.90
15239;DHT22;7722;53.274;9.500;2023-02-01T10:15:39;6.50;99.90
15239;DHT22;7722;53.274;9.500;2023-02-01T10:18:23;6.50;99.90
15239;DHT22;7722;53.274;9.500;2023-02-01T10:20:57;6.50;99.90
15239;DHT22;7722;53.274;9.500;2023-02-01T10:23:40;6.50;99.90
15239;DHT22;7722;53.274;9.500;2023-02-01T10:26:18;6.50;99.90
15239;DHT22;7722;53.274;9.500;2023-02-01T10:28:49;6.40;99.90
15239;DHT22;7722;53.274;9.500;2023-02-01T10:31:19;6.30;99.90
15239;DHT22;7722;53.274;9.500;2023-02-01T10:33:49;6.30;99.90
15239;DHT22;7722;53.274;9.500;2023-02-01T10:36:23;6.30;99.90
15239;DHT22;7722;53.274;9.500;2023-02-01T10:38:52;6.30;99.90
15239;DHT22;7722;53.274;9.500;2023-02-01T10:41:29;6.40;99.90
15239;DHT22;7722;53.274;9.500;2023-02-01T10:43:58;6.30;99.90
15239;DHT22;7722;53.274;9.500;2023-02-01T10:46:29;6.30;99.90
15239;DHT22;7722;53.274;9.500;2023-02-01T10:48:58;6.20;99.90
15239;DHT22;7722;53.274;9.500;2023-02-01T10:51:29;6.20;99.90
15239;DHT22;7722;53.274;9.500;2023-02-01T10:54:00;6.20;99.90
15239;DHT22;7722;53.274;9.500;2023-02-01T10:56:28;6.20;99.90
15239;DHT22;7722;53.274;9.500;2023-02-01T10:59:00;6.30;99.90
15239;DHT22;7722;53.274;9.500;2023-02-01T11:01:33;6.30;99.90
15239;DHT22;7722;53.274;9.500;2023-02-01T11:04:01;6.30;99.90
15239;DHT22;7722;53.274;9.500;2023-02-01T11:06:30;6.20;99.90
15239;DHT22;7722;53.274;9.500;2023-02-01T11:09:00;6.20;99.90
15239;DHT22;7722;53.274;9.500;2023-02-01T11:11:28;6.10;99.90
15239;DHT22;7722;53.274;9.500;2023-02-01T11:13:57;6.20;99.90
15239;DHT22;7722;53.274;9.500;2023-02-01T11:16:34;6.10;99.90
15239;DHT22;7722;53.274;9.500;2023-02-01T11:19:02;6.10;99.90
15239;DHT22;7722;53.274;9.500;2023-02-01T11:21:29;6.10;99.90
15239;DHT22;7722;53.274;9.500;2023-02-01T11:24:00;6.10;99.90
15239;DHT22;7722;53.274;9.500;2023-02-01T11:26:28;6.00;99.90
15239;DHT22;7722;53.274;9.500;2023-02-01T11:28:59;5.90;99.90
15239;DHT22;7722;53.274;9.500;2023-02-01T11:31:28;5.90;99.90
15239;DHT22;7722;53.274;9.500;2023-02-01T11:33:59;5.90;99.90
15239;DHT22;7722;53.274;9.500;2023-02-01T11:36:30;5.70;99.90
15239;DHT22;7722;53.274;9.500;2023-02-01T11:39:15;5.50;99.90
15239;DHT22;7722;53.274;9.500;2023-02-01T11:41:55;5.30;99.90
15239;DHT22;7722;53.274;9.500;2023-02-01T11:44:29;5.20;99.90
15239;DHT22;7722;53.274;9.500;2023-02-01T11:47:19;5.10;99.90
15239;DHT22;7722;53.274;9.500;2023-02-01T11:49:49;4.90;99.90
15239;DHT22;7722;53.274;9.500;2023-02-01T11:52:35;4.90;99.90
15239;DHT22;7722;53.274;9.500;2023-02-01T11:55:40;4.70;99.90
15239;DHT22;7722;53.274;9.500;2023-02-01T11:58:22;4.50;99.90
15239;DHT22;7722;53.274;9.500;2023-02-01T12:01:08;4.40;99.90
15239;DHT22;7722;53.274;9.500;2023-02-01T12:04:13;4.30;99.90
15239;DHT22;7722;53.274;9.500;2023-02-01T12:06:49;4.20;99.90
15239;DHT22;7722;53.274;9.500;2023-02-01T12:12:19;4.20;99.90
15239;DHT22;7722;53.274;9.500;2023-02-01T12:15:08;4.10;99.90
15239;DHT22;7722;53.274;9.500;2023-02-01T12:18:11;4.00;99.90
15239;DHT22;7722;53.274;9.500;2023-02-01T12:20:58;3.90;99.90
15239;DHT22;7722;53.274;9.500;2023-02-01T12:23:38;3.90;99.90
15239;DHT22;7722;53.274;9.500;2023-02-01T12:32:21;3.40;99.90
15239;DHT22;7722;53.274;9.500;2023-02-01T12:35:15;3.10;99.90
15239;DHT22;7722;53.274;9.500;2023-02-01T12:37:56;2.70;99.90
15239;DHT22;7722;53.274;9.500;2023-02-01T12:40:36;2.30;99.90
15239;DHT22;7722;53.274;9.500;2023-02-01T12:43:11;2.10;99.90
15239;DHT22;7722;53.274;9.500;2023-02-01T12:45:45;1.70;99.90
15239;DHT22;7722;53.274;9.500;2023-02-01T12:48:25;1.60;99.90
15239;DHT22;7722;53.274;9.500;2023-02-01T12:50:54;1.80;99.90
15239;DHT22;7722;53.274;9.500;2023-02-01T12:53:27;1.70;99.90
15239;DHT22;7722;53.274;9.500;2023-02-01T12:56:02;1.80;99.90
15239;DHT22;7722;53.274;9.500;2023-02-01T12:58:38;1.80;99.90
15239;DHT22;7722;53.274;9.500;2023-02-01T13:01:09;2.00;99.90
15239;DHT22;7722;53.274;9.500;2023-02-01T13:03:41;1.90;99.90
15239;DHT22;7722;53.274;9.500;2023-02-01T13:06:13;2.20;99.90
15239;DHT22;7722;53.274;9.500;2023-02-01T13:08:47;2.40;99.90
15239;DHT22;7722;53.274;9.500;2023-02-01T13:11:20;2.60;99.90
15239;DHT22;7722;53.274;9.500;2023-02-01T13:13:55;2.60;99.90
15239;DHT22;7722;53.274;9.500;2023-02-01T13:16:26;2.70;99.90
15239;DHT22;7722;53.274;9.500;2023-02-01T13:19:02;3.00;99.90
15239;DHT22;7722;53.274;9.500;2023-02-01T13:21:33;2.70;99.90
15239;DHT22;7722;53.274;9.500;2023-02-01T13:24:00;2.80;99.90
15239;DHT22;7722;53.274;9.500;2023-02-01T13:26:29;3.10;99.90
15239;DHT22;7722;53.274;9.500;2023-02-01T13:28:59;3.10;99.90
15239;DHT22;7722;53.274;9.500;2023-02-01T13:31:59;3.20;99.90
15239;DHT22;7722;53.274;9.500;2023-02-01T13:34:58;3.20;99.90
15239;DHT22;7722;53.274;9.500;2023-02-01T13:37:42;3.50;99.90
15239;DHT22;7722;53.274;9.500;2023-02-01T13:40:36;3.80;99.90
15239;DHT22;7722;53.274;9.500;2023-02-01T13:43:11;3.90;99.90
15239;DHT22;7722;53.274;9.500;2023-02-01T13:45:45;4.20;99.90
15239;DHT22;7722;53.274;9.500;2023-02-01T13:48:18;4.10;99.90
15239;DHT22;7722;53.274;9.500;2023-02-01T13:50:56;4.00;99.90
15239;DHT22;7722;53.274;9.500;2023-02-01T13:53:28;4.00;99.90
15239;DHT22;7722;53.274;9.500;2023-02-01T13:56:00;4.10;99.90
15239;DHT22;7722;53.274;9.500;2023-02-01T13:58:35;4.00;99.90
15239;DHT22;7722;53.274;9.500;2023-02-01T14:04:45;4.10;99.90
15239;DHT22;7722;53.274;9.500;2023-02-01T14:07:19;4.00;99.90
15239;DHT22;7722;53.274;9.500;2023-02-01T14:09:46;4.10;99.90
15239;DHT22;7722;53.274;9.500;2023-02-01T14:12:43;4.10;99.90
15239;DHT22;7722;53.274;9.500;2023-02-01T14:15:26;4.40;99.90
15239;DHT22;7722;53.274;9.500;2023-02-01T14:17:53;4.40;99.90
15239;DHT22;7722;53.274;9.500;2023-02-01T14:20:46;4.50;99.90
15239;DHT22;7722;53.274;9.500;2023-02-01T14:23:27;4.60;99.90
15239;DHT22;7722;53.274;9.500;2023-02-01T14:26:11;4.90;99.90
15239;DHT22;7722;53.274;9.500;2023-02-01T14:28:43;4.90;99.90
15239;DHT22;7722;53.274;9.500;2023-02-01T14:31:28;4.80;99.90
15239;DHT22;7722;53.274;9.500;2023-02-01T14:33:59;4.90;99.90
15239;DHT22;7722;53.274;9.500;2023-02-01T14:36:39;4.70;99.90
15239;DHT22;7722;53.274;9.500;2023-02-01T14:39:24;4.50;99.90
15239;DHT22;7722;53.274;9.500;2023-02-01T14:41:55;4.50;99.90
15239;DHT22;7722;53.274;9.500;2023-02-01T14:44:26;4.50;99.90
15239;DHT22;7722;53.274;9.500;2023-02-01T14:47:10;4.20;99.90
15239;DHT22;7722;53.274;9.500;2023-02-01T14:49:42;4.10;99.90
15239;DHT22;7722;53.274;9.500;2023-02-01T14:52:17;3.90;99.90
15239;DHT22;7722;53.274;9.500;2023-02-01T14:54:51;3.90;99.90
15239;DHT22;7722;53.274;9.500;2023-02-01T14:57:20;3.50;99.90
15239;DHT22;7722;53.274;9.500;2023-02-01T14:59:49;3.50;99.90
15239;DHT22;7722;53.274;9.500;2023-02-01T15:02:25;3.60;99.90
15239;DHT22;7722;53.274;9.500;2023-02-01T15:04:54;3.60;99.90
15239;DHT22;7722;53.274;9.500;2023-02-01T15:07:22;3.80;99.90
15239;DHT22;7722;53.274;9.500;2023-02-01T15:09:53;3.90;99.90
15239;DHT22;7722;53.274;9.500;2023-02-01T15:12:27;3.80;99.90
15239;DHT22;7722;53.274;9.500;2023-02-01T15:15:11;3.90;99.90
15239;DHT22;7722;53.274;9.500;2023-02-01T15:17:40;4.00;99.90
15239;DHT22;7722;53.274;9.500;2023-02-01T15:20:14;4.10;99.90
15239;DHT22;7722;53.274;9.500;2023-02-01T15:22:43;4.00;99.90
15239;DHT22;7722;53.274;9.500;2023-02-01T15:25:19;4.20;99.90
15239;DHT22;7722;53.274;9.500;2023-02-01T15:27:47;4.10;99.90
15239;DHT22;7722;53.274;9.500;2023-02-01T15:30:18;4.20;99.90
15239;DHT22;7722;53.274;9.500;2023-02-01T15:32:47;4.00;99.90
15239;DHT22;7722;53.274;9.500;2023-02-01T15:35:41;4.20;99.90
15239;DHT22;7722;53.274;9.500;2023-02-01T15:38:33;4.10;99.90
15239;DHT22;7722;53.274;9.500;2023-02-01T15:41:03;4.10;99.90
15239;DHT22;7722;53.274;9.500;2023-02-01T15:43:32;4.10;99.90
15239;DHT22;7722;53.274;9.500;2023-02-01T15:46:02;3.90;99.90
15239;DHT22;7722;53.274;9.500;2023-02-01T15:48:35;4.10;99.90
15239;DHT22;7722;53.274;9.500;2023-02-01T15:51:03;4.00;99.90
15239;DHT22;7722;53.274;9.500;2023-02-01T15:53:31;4.10;99.90
15239;DHT22;7722;53.274;9.500;2023-02-01T15:56:01;4.10;99.90
15239;DHT22;7722;53.274;9.500;2023-02-01T15:58:30;4.20;99.90
15239;DHT22;7722;53.274;9.500;2023-02-01T16:01:00;4.00;99.90
15239;DHT22;7722;53.274;9.500;2023-02-01T16:03:36;4.10;99.90
15239;DHT22;7722;53.274;9.500;2023-02-01T16:06:05;4.00;99.90
15239;DHT22;7722;53.274;9.500;2023-02-01T16:08:34;4.00;99.90
15239;DHT22;7722;53.274;9.500;2023-02-01T16:11:20;3.90;99.90
15239;DHT22;7722;53.274;9.500;2023-02-01T16:13:48;4.00;99.90
15239;DHT22;7722;53.274;9.500;2023-02-01T16:16:15;3.80;99.90
15239;DHT22;7722;53.274;9.500;2023-02-01T16:18:44;4.00;99.90
15239;DHT22;7722;53.274;9.500;2023-02-01T16:21:12;4.00;99.90
15239;DHT22;7722;53.274;9.500;2023-02-01T16:23:39;3.90;99.90
15239;DHT22;7722;53.274;9.500;2023-02-01T16:26:06;3.80;99.90
15239;DHT22;7722;53.274;9.500;2023-02-01T16:28:33;3.70;99.90
15239;DHT22;7722;53.274;9.500;2023-02-01T16:31:01;3.70;99.90
15239;DHT22;7722;53.274;9.500;2023-02-01T16:33:28;3.90;99.90
15239;DHT22;7722;53.274;9.500;2023-02-01T16:35:57;3.80;99.90
15239;DHT22;7722;53.274;9.500;2023-02-01T16:38:28;3.70;99.90
15239;DHT22;7722;53.274;9.500;2023-02-01T16:40:55;3.90;99.90
15239;DHT22;7722;53.274;9.500;2023-02-01T16:43:25;3.90;99.90
15239;DHT22;7722;53.274;9.500;2023-02-01T16:45:55;4.00;99.90
15239;DHT22;7722;53.274;9.500;2023-02-01T16:48:24;4.00;99.90
15239;DHT22;7722;53.274;9.500;2023-02-01T16:50:53;4.00;99.90